createdAt,value
2023-04-18T00:00:38.794Z,1.58
2023-04-18T00:01:38.880Z,1.31
2023-04-18T00:02:39.012Z,1.21
2023-04-18T00:03:39.061Z,1.41
2023-04-18T00:04:38.856Z,1.52
2023-04-18T00:05:38.819Z,1.52
2023-04-18T00:06:38.799Z,1.46
2023-04-18T00:07:38.799Z,1.54
2023-04-18T00:08:38.773Z,1.74
2023-04-18T00:09:38.847Z,1.54
2023-04-18T00:10:38.770Z,1.49
2023-04-18T00:11:38.783Z,1.72
2023-04-18T00:12:38.809Z,1.43
2023-04-18T00:13:38.783Z,1.31
2023-04-18T00:14:38.809Z,1.80
2023-04-18T00:15:38.804Z,1.60
2023-04-18T00:16:38.865Z,1.45
2023-04-18T00:17:38.864Z,1.36
2023-04-18T00:18:38.785Z,1.55
2023-04-18T00:19:38.819Z,1.10
2023-04-18T00:20:38.845Z,1.20
2023-04-18T00:21:38.795Z,1.46
2023-04-18T00:22:38.806Z,1.59
2023-04-18T00:23:38.793Z,1.31
2023-04-18T00:24:38.809Z,1.86
2023-04-18T00:25:38.847Z,1.80
2023-04-18T00:26:38.860Z,1.23
2023-04-18T00:27:38.828Z,1.52
2023-04-18T00:28:38.793Z,1.48
2023-04-18T00:29:38.836Z,1.66
2023-04-18T00:30:38.842Z,1.41
2023-04-18T00:31:38.853Z,1.61
2023-04-18T00:32:38.931Z,1.21
2023-04-18T00:33:38.839Z,1.06
2023-04-18T00:34:38.814Z,1.55
2023-04-18T00:35:38.857Z,1.42
2023-04-18T00:36:38.849Z,1.63
2023-04-18T00:37:38.836Z,1.36
2023-04-18T00:38:38.869Z,1.95
2023-04-18T00:39:38.866Z,1.92
2023-04-18T00:40:38.878Z,1.32
2023-04-18T00:41:38.863Z,1.59
2023-04-18T00:42:38.863Z,1.74
2023-04-18T00:43:38.886Z,1.53
2023-04-18T00:44:38.856Z,1.38
2023-04-18T00:45:38.906Z,1.37
2023-04-18T00:46:39.018Z,1.47
2023-04-18T00:47:38.935Z,1.32
2023-04-18T00:48:38.888Z,1.31
2023-04-18T00:49:38.945Z,1.49
2023-04-18T00:50:38.920Z,1.45
2023-04-18T00:51:38.922Z,1.51
2023-04-18T00:52:38.942Z,1.63
2023-04-18T00:53:38.920Z,1.60
2023-04-18T00:54:38.942Z,1.59
2023-04-18T00:55:38.926Z,1.54
2023-04-18T00:56:38.965Z,1.73
2023-04-18T00:57:38.940Z,1.29
2023-04-18T00:58:38.983Z,1.33
2023-04-18T00:59:39.001Z,1.81
2023-04-18T01:00:39.498Z,1.45
2023-04-18T01:01:39.104Z,1.43
2023-04-18T01:02:39.060Z,1.43
2023-04-18T01:03:39.137Z,1.89
2023-04-18T01:04:39.114Z,1.27
2023-04-18T01:05:39.037Z,1.55
2023-04-18T01:06:39.040Z,1.45
2023-04-18T01:07:39.029Z,1.25
2023-04-18T01:08:39.028Z,1.13
2023-04-18T01:09:39.099Z,1.74
2023-04-18T01:10:39.106Z,1.35
2023-04-18T01:11:39.069Z,1.53
2023-04-18T01:12:39.117Z,1.75
2023-04-18T01:13:39.110Z,1.51
2023-04-18T01:14:39.124Z,1.68
2023-04-18T01:15:39.191Z,1.54
2023-04-18T01:16:39.117Z,1.14
2023-04-18T01:17:39.204Z,1.19
2023-04-18T01:18:39.196Z,1.56
2023-04-18T01:19:39.176Z,1.54
2023-04-18T01:20:39.181Z,1.45
2023-04-18T01:21:39.199Z,1.49
2023-04-18T01:22:39.188Z,1.52
2023-04-18T01:23:39.208Z,1.60
2023-04-18T01:24:39.435Z,1.31
2023-04-18T01:25:39.312Z,1.41
2023-04-18T01:26:39.242Z,1.36
2023-04-18T01:27:39.271Z,1.91
2023-04-18T01:28:39.256Z,1.53
2023-04-18T01:29:39.273Z,1.42
2023-04-18T01:30:39.354Z,1.77
2023-04-18T01:31:39.398Z,1.64
2023-04-18T01:32:39.405Z,1.53
2023-04-18T01:33:39.333Z,1.43
2023-04-18T01:34:39.397Z,1.54
2023-04-18T01:35:39.364Z,1.36
2023-04-18T01:36:39.396Z,1.67
2023-04-18T01:37:39.407Z,1.50
2023-04-18T01:38:39.402Z,1.57
2023-04-18T01:39:39.445Z,1.46
2023-04-18T01:40:39.423Z,1.54
2023-04-18T01:41:39.421Z,1.58
2023-04-18T01:42:39.461Z,1.56
2023-04-18T01:43:39.475Z,1.53
2023-04-18T01:44:39.519Z,1.43
2023-04-18T01:45:39.511Z,1.70
2023-04-18T01:46:39.586Z,1.54
2023-04-18T01:47:39.557Z,1.55
2023-04-18T01:48:39.568Z,1.61
2023-04-18T01:49:39.556Z,1.45
2023-04-18T01:50:39.621Z,1.62
2023-04-18T01:51:39.588Z,1.34
2023-04-18T01:52:39.597Z,1.55
2023-04-18T01:53:39.606Z,1.57
2023-04-18T01:54:39.645Z,1.57
2023-04-18T01:55:39.641Z,1.50
2023-04-18T01:56:39.655Z,1.28
2023-04-18T01:57:39.676Z,1.87
2023-04-18T01:58:39.674Z,1.58
2023-04-18T01:59:39.717Z,1.72
2023-04-18T02:00:39.756Z,1.66
2023-04-18T02:01:39.741Z,1.30
2023-04-18T02:02:39.843Z,1.55
2023-04-18T02:03:39.867Z,1.48
2023-04-18T02:04:39.787Z,1.42
2023-04-18T02:05:39.808Z,1.55
2023-04-18T02:06:39.821Z,1.63
2023-04-18T02:07:39.827Z,1.51
2023-04-18T02:08:39.841Z,1.45
2023-04-18T02:09:39.893Z,1.57
2023-04-18T02:10:39.894Z,1.28
2023-04-18T02:11:39.858Z,1.51
2023-04-18T02:12:39.856Z,1.46
2023-04-18T02:13:39.894Z,1.49
2023-04-18T02:14:39.910Z,1.71
2023-04-18T02:15:39.941Z,1.64
2023-04-18T02:16:39.992Z,1.56
2023-04-18T02:17:39.987Z,1.64
2023-04-18T02:18:39.969Z,1.55
2023-04-18T02:19:39.985Z,1.96
2023-04-18T02:20:40.030Z,1.61
2023-04-18T02:21:40.036Z,1.43
2023-04-18T02:22:40.047Z,1.23
2023-04-18T02:23:40.051Z,2.05
2023-04-18T02:24:40.076Z,1.45
2023-04-18T02:25:40.082Z,1.48
2023-04-18T02:26:40.125Z,1.73
2023-04-18T02:27:40.128Z,1.27
2023-04-18T02:28:40.201Z,1.20
2023-04-18T02:29:40.483Z,1.43
2023-04-18T02:30:40.190Z,1.60
2023-04-18T02:31:40.244Z,1.68
2023-04-18T02:32:40.289Z,1.79
2023-04-18T02:33:40.196Z,1.30
2023-04-18T02:34:40.317Z,1.52
2023-04-18T02:35:40.235Z,1.44
2023-04-18T02:36:40.262Z,1.34
2023-04-18T02:37:40.267Z,1.67
2023-04-18T02:38:40.294Z,1.31
2023-04-18T02:39:40.305Z,1.61
2023-04-18T02:40:40.372Z,1.35
2023-04-18T02:41:40.371Z,1.34
2023-04-18T02:42:40.358Z,1.57
2023-04-18T02:43:40.379Z,1.73
2023-04-18T02:44:40.397Z,1.82
2023-04-18T02:45:40.485Z,1.39
2023-04-18T02:46:40.486Z,1.40
2023-04-18T02:47:51.218Z,1.40
2023-04-18T02:48:41.449Z,1.68
2023-04-18T02:49:40.444Z,1.48
2023-04-18T02:50:40.480Z,1.81
2023-04-18T02:51:40.425Z,1.58
2023-04-18T02:52:40.452Z,1.55
2023-04-18T02:53:40.411Z,1.24
2023-04-18T02:54:40.437Z,1.62
2023-04-18T02:55:40.426Z,1.64
2023-04-18T02:56:40.397Z,1.39
2023-04-18T02:57:40.412Z,1.54
2023-04-18T02:58:40.373Z,1.59
2023-04-18T02:59:40.401Z,1.44
2023-04-18T03:00:40.377Z,1.54
2023-04-18T03:01:40.429Z,1.42
2023-04-18T03:02:40.473Z,1.51
2023-04-18T03:03:40.346Z,1.39
2023-04-18T03:04:40.393Z,1.65
2023-04-18T03:05:40.346Z,1.19
2023-04-18T03:06:40.320Z,1.50
2023-04-18T03:07:40.316Z,1.38
2023-04-18T03:08:40.288Z,1.67
2023-04-18T03:09:40.314Z,1.55
2023-04-18T03:10:40.353Z,1.34
2023-04-18T03:11:40.344Z,1.66
2023-04-18T03:12:40.368Z,1.68
2023-04-18T03:13:40.401Z,1.36
2023-04-18T03:14:40.420Z,1.45
2023-04-18T03:15:40.464Z,1.44
2023-04-18T03:16:40.493Z,1.47
2023-04-18T03:17:40.543Z,1.44
2023-04-18T03:18:40.550Z,1.50
2023-04-18T03:19:40.599Z,1.49
2023-04-18T03:20:40.576Z,1.66
2023-04-18T03:21:40.647Z,1.53
2023-04-18T03:22:40.648Z,1.84
2023-04-18T03:23:40.664Z,1.66
2023-04-18T03:24:40.696Z,1.52
2023-04-18T03:25:40.710Z,1.47
2023-04-18T03:26:40.717Z,1.60
2023-04-18T03:27:40.740Z,1.44
2023-04-18T03:28:40.777Z,1.32
2023-04-18T03:29:40.835Z,1.43
2023-04-18T03:30:40.833Z,1.17
2023-04-18T03:31:40.920Z,1.52
2023-04-18T03:32:40.948Z,1.31
2023-04-18T03:33:40.894Z,1.53
2023-04-18T03:34:40.918Z,1.47
2023-04-18T03:35:40.939Z,1.73
2023-04-18T03:36:40.969Z,1.65
2023-04-18T03:37:40.984Z,1.72
2023-04-18T03:38:41.006Z,1.34
2023-04-18T03:39:41.038Z,1.46
2023-04-18T03:40:41.085Z,1.52
2023-04-18T03:41:41.115Z,1.84
2023-04-18T03:42:41.091Z,1.33
2023-04-18T03:43:41.112Z,1.26
2023-04-18T03:44:41.154Z,1.74
2023-04-18T03:45:41.173Z,1.54
2023-04-18T03:46:41.252Z,1.48
2023-04-18T03:47:41.291Z,1.73
2023-04-18T03:48:41.237Z,1.42
2023-04-18T03:49:41.305Z,1.48
2023-04-18T03:50:41.287Z,1.50
2023-04-18T03:51:41.338Z,1.44
2023-04-18T03:52:41.348Z,1.63
2023-04-18T03:53:41.373Z,1.39
2023-04-18T03:54:41.394Z,1.75
2023-04-18T03:55:41.446Z,1.39
2023-04-18T03:56:41.456Z,1.57
2023-04-18T03:57:41.500Z,1.18
2023-04-18T03:58:41.472Z,1.63
2023-04-18T03:59:41.545Z,1.74
2023-04-18T04:00:41.585Z,1.73
2023-04-18T04:01:41.603Z,1.35
2023-04-18T04:02:41.810Z,1.67
2023-04-18T04:03:41.906Z,1.47
2023-04-18T04:04:41.657Z,1.40
2023-04-18T04:05:41.662Z,1.70
2023-04-18T04:06:41.694Z,1.79
2023-04-18T04:07:41.756Z,1.86
2023-04-18T04:08:41.767Z,1.55
2023-04-18T04:09:41.814Z,1.86
2023-04-18T04:10:41.842Z,1.81
2023-04-18T04:11:41.863Z,1.49
2023-04-18T04:12:41.889Z,1.83
2023-04-18T04:13:41.907Z,1.66
2023-04-18T04:14:41.921Z,1.40
2023-04-18T04:15:41.942Z,1.42
2023-04-18T04:16:41.985Z,1.36
2023-04-18T04:17:42.090Z,1.65
2023-04-18T04:18:42.064Z,1.63
2023-04-18T04:19:42.575Z,1.44
2023-04-18T04:20:42.092Z,1.21
2023-04-18T04:21:42.117Z,1.91
2023-04-18T04:22:42.142Z,1.49
2023-04-18T04:23:42.195Z,1.64
2023-04-18T04:24:43.035Z,1.86
2023-04-18T04:25:42.233Z,1.37
2023-04-18T04:26:42.253Z,1.69
2023-04-18T04:27:42.283Z,1.47
2023-04-18T04:28:42.346Z,1.58
2023-04-18T04:29:42.347Z,1.70
2023-04-18T04:30:42.386Z,1.47
2023-04-18T04:31:42.473Z,1.63
2023-04-18T04:32:42.430Z,1.60
2023-04-18T04:33:42.440Z,1.91
2023-04-18T04:34:42.487Z,1.83
2023-04-18T04:35:42.512Z,1.96
2023-04-18T04:36:42.527Z,1.59
2023-04-18T04:37:42.556Z,1.53
2023-04-18T04:38:42.561Z,1.49
2023-04-18T04:39:42.635Z,1.45
2023-04-18T04:40:42.635Z,1.66
2023-04-18T04:41:42.674Z,1.56
2023-04-18T04:42:42.731Z,1.90
2023-04-18T04:43:43.546Z,1.98
2023-04-18T04:44:42.796Z,1.75
2023-04-18T04:45:42.763Z,2.06
2023-04-18T04:46:42.772Z,1.50
2023-04-18T04:47:42.872Z,1.67
2023-04-18T04:48:42.841Z,1.62
2023-04-18T04:49:42.876Z,1.65
2023-04-18T04:50:42.891Z,1.41
2023-04-18T04:51:42.973Z,1.63
2023-04-18T04:52:42.960Z,1.58
2023-04-18T04:53:42.993Z,1.37
2023-04-18T04:54:43.025Z,1.40
2023-04-18T04:55:43.018Z,1.96
2023-04-18T04:56:43.034Z,1.80
2023-04-18T04:57:43.109Z,1.21
2023-04-18T04:58:43.072Z,1.45
2023-04-18T04:59:43.149Z,1.67
2023-04-18T05:00:43.138Z,1.73
2023-04-18T05:01:43.187Z,1.43
2023-04-18T05:02:43.310Z,1.30
2023-04-18T05:03:43.526Z,1.54
2023-04-18T05:04:43.338Z,1.52
2023-04-18T05:05:43.260Z,1.78
2023-04-18T05:06:43.293Z,1.52
2023-04-18T05:07:43.310Z,1.47
2023-04-18T05:08:43.345Z,1.52
2023-04-18T05:09:43.540Z,1.90
2023-04-18T05:10:43.485Z,1.64
2023-04-18T05:11:43.447Z,1.38
2023-04-18T05:12:43.473Z,1.42
2023-04-18T05:13:43.489Z,1.49
2023-04-18T05:14:43.534Z,1.57
2023-04-18T05:15:43.550Z,1.59
2023-04-18T05:16:43.562Z,1.51
2023-04-18T05:17:43.711Z,1.53
2023-04-18T05:18:44.542Z,1.84
2023-04-18T05:19:43.680Z,1.79
2023-04-18T05:20:43.712Z,1.83
2023-04-18T05:21:43.741Z,1.83
2023-04-18T05:22:44.057Z,1.54
2023-04-18T05:23:44.077Z,1.74
2023-04-18T05:24:43.825Z,1.54
2023-04-18T05:25:43.811Z,1.30
2023-04-18T05:26:43.866Z,1.28
2023-04-18T05:27:43.897Z,1.49
2023-04-18T05:28:44.075Z,1.43
2023-04-18T05:29:44.171Z,1.68
2023-04-18T05:30:43.999Z,1.63
2023-04-18T05:31:43.994Z,1.60
2023-04-18T05:32:44.002Z,1.56
2023-04-18T05:33:43.979Z,1.80
2023-04-18T05:34:44.075Z,1.69
2023-04-18T05:35:44.120Z,1.62
2023-04-18T05:36:43.971Z,1.57
2023-04-18T05:37:43.984Z,2.62
2023-04-18T05:38:44.017Z,1.98
2023-04-18T05:39:44.559Z,1.96
2023-04-18T05:40:44.128Z,2.38
2023-04-18T05:41:44.167Z,2.35
2023-04-18T05:42:44.238Z,1.93
2023-04-18T05:43:51.055Z,2.30
2023-04-18T05:44:45.554Z,2.45
2023-04-18T05:45:44.259Z,1.59
2023-04-18T05:46:44.323Z,2.22
2023-04-18T05:47:44.267Z,2.44
2023-04-18T05:48:44.273Z,2.51
2023-04-18T05:49:44.556Z,2.16
2023-04-18T05:50:44.633Z,3.44
2023-04-18T05:51:44.214Z,2.20
2023-04-18T05:52:44.238Z,2.65
2023-04-18T05:53:44.554Z,2.55
2023-04-18T05:54:44.265Z,2.25
2023-04-18T05:55:44.215Z,2.78
2023-04-18T05:56:44.227Z,2.54
2023-04-18T05:57:44.243Z,2.34
2023-04-18T05:58:44.245Z,2.49
2023-04-18T05:59:44.270Z,2.83
2023-04-18T06:00:44.263Z,2.93
2023-04-18T06:01:44.238Z,2.21
2023-04-18T06:02:44.325Z,2.49
2023-04-18T06:03:44.531Z,3.26
2023-04-18T06:04:44.470Z,2.47
2023-04-18T06:05:44.431Z,2.32
2023-04-18T06:06:44.298Z,2.35
2023-04-18T06:07:44.342Z,2.24
2023-04-18T06:08:44.357Z,2.72
2023-04-18T06:09:44.415Z,2.39
2023-04-18T06:10:44.493Z,2.24
2023-04-18T06:11:44.516Z,2.35
2023-04-18T06:12:44.596Z,3.03
2023-04-18T06:13:44.683Z,2.45
2023-04-18T06:14:44.743Z,2.42
2023-04-18T06:15:44.866Z,2.11
2023-04-18T06:16:44.853Z,1.98
2023-04-18T06:17:44.962Z,1.94
2023-04-18T06:18:45.029Z,2.82
2023-04-18T06:19:44.995Z,2.92
2023-04-18T06:20:45.042Z,1.96
2023-04-18T06:21:45.108Z,2.54
2023-04-18T06:22:45.154Z,2.55
2023-04-18T06:23:45.198Z,2.85
2023-04-18T06:24:45.320Z,2.24
2023-04-18T06:25:45.342Z,2.54
2023-04-18T06:26:45.367Z,2.50
2023-04-18T06:27:45.448Z,2.63
2023-04-18T06:28:45.471Z,2.70
2023-04-18T06:29:45.476Z,2.60
2023-04-18T06:30:45.556Z,2.82
2023-04-18T06:31:45.612Z,2.97
2023-04-18T06:32:45.634Z,3.13
2023-04-18T06:33:45.678Z,2.98
2023-04-18T06:34:45.657Z,3.42
2023-04-18T06:35:45.676Z,3.41
2023-04-18T06:36:45.722Z,3.27
2023-04-18T06:37:45.769Z,4.53
2023-04-18T06:38:46.089Z,4.25
2023-04-18T06:39:45.814Z,5.31
2023-04-18T06:40:46.104Z,4.25
2023-04-18T06:41:45.869Z,3.50
2023-04-18T06:42:45.888Z,4.42
2023-04-18T06:43:59.700Z,4.40
2023-04-18T06:44:46.937Z,4.71
2023-04-18T06:45:46.149Z,3.15
2023-04-18T06:46:46.604Z,3.66
2023-04-18T06:47:45.918Z,3.29
2023-04-18T06:48:45.864Z,3.77
2023-04-18T06:49:45.860Z,3.56
2023-04-18T06:50:46.625Z,3.14
2023-04-18T06:51:45.890Z,3.85
2023-04-18T06:52:45.848Z,3.12
2023-04-18T06:53:45.854Z,3.90
2023-04-18T06:54:45.833Z,2.96
2023-04-18T06:55:45.797Z,2.94
2023-04-18T06:56:45.801Z,3.11
2023-04-18T06:57:45.803Z,2.82
2023-04-18T06:58:45.800Z,3.43
2023-04-18T06:59:45.808Z,3.55
2023-04-18T07:00:46.110Z,3.86
2023-04-18T07:01:46.586Z,3.52
2023-04-18T07:02:45.998Z,3.59
2023-04-18T07:03:46.177Z,3.07
2023-04-18T07:04:45.936Z,3.17
2023-04-18T07:05:46.092Z,3.31
2023-04-18T07:06:45.995Z,2.89
2023-04-18T07:07:45.946Z,3.73
2023-04-18T07:08:45.976Z,3.03
2023-04-18T07:09:46.000Z,2.83
2023-04-18T07:10:46.056Z,3.46
2023-04-18T07:11:46.012Z,3.48
2023-04-18T07:12:46.024Z,3.39
2023-04-18T07:13:46.062Z,3.20
2023-04-18T07:14:46.074Z,3.58
2023-04-18T07:15:46.109Z,3.00
2023-04-18T07:16:46.121Z,2.99
2023-04-18T07:17:46.187Z,3.64
2023-04-18T07:18:46.196Z,3.40
2023-04-18T07:19:46.263Z,3.09
2023-04-18T07:20:46.269Z,3.33
2023-04-18T07:21:46.367Z,3.52
2023-04-18T07:22:46.322Z,3.15
2023-04-18T07:23:46.319Z,3.71
2023-04-18T07:24:46.383Z,3.27
2023-04-18T07:25:46.357Z,2.86
2023-04-18T07:26:46.354Z,3.57
2023-04-18T07:27:46.403Z,3.08
2023-04-18T07:28:46.367Z,2.86
2023-04-18T07:29:46.384Z,3.65
2023-04-18T07:30:46.445Z,3.17
2023-04-18T07:31:46.416Z,3.24
2023-04-18T07:32:46.482Z,3.97
2023-04-18T07:33:47.221Z,4.16
2023-04-18T07:34:46.421Z,3.74
2023-04-18T07:35:46.432Z,4.63
2023-04-18T07:36:46.487Z,3.73
2023-04-18T07:37:46.432Z,4.31
2023-04-18T07:38:46.473Z,6.22
2023-04-18T07:39:46.570Z,5.06
2023-04-18T07:40:46.605Z,4.92
2023-04-18T07:41:46.614Z,4.50
2023-04-18T07:42:46.577Z,4.65
2023-04-18T07:43:46.635Z,5.15
2023-04-18T07:44:46.611Z,5.32
2023-04-18T07:45:46.612Z,3.70
2023-04-18T07:46:46.606Z,4.81
2023-04-18T07:47:46.686Z,4.71
2023-04-18T07:48:46.620Z,4.69
2023-04-18T07:49:46.667Z,4.84
2023-04-18T07:50:47.128Z,4.85
2023-04-18T07:51:46.655Z,5.25
2023-04-18T07:52:46.655Z,4.84
2023-04-18T07:53:46.625Z,5.21
2023-04-18T07:54:46.622Z,4.62
2023-04-18T07:55:47.145Z,5.00
2023-04-18T07:56:46.656Z,5.29
2023-04-18T07:57:47.629Z,4.13
2023-04-18T07:58:46.695Z,4.70
2023-04-18T07:59:47.612Z,4.21
2023-04-18T08:00:47.135Z,4.53
2023-04-18T08:01:46.703Z,5.20
2023-04-18T08:02:46.864Z,5.27
2023-04-18T08:03:46.801Z,4.72
2023-04-18T08:04:46.867Z,4.57
2023-04-18T08:05:46.798Z,4.43
2023-04-18T08:06:46.880Z,5.27
2023-04-18T08:07:46.995Z,5.25
2023-04-18T08:08:47.096Z,4.65
2023-04-18T08:09:47.218Z,5.03
2023-04-18T08:10:47.528Z,4.98
2023-04-18T08:11:47.348Z,5.19
2023-04-18T08:12:47.284Z,5.57
2023-04-18T08:13:47.306Z,5.51
2023-04-18T08:14:47.285Z,5.69
2023-04-18T08:15:47.284Z,5.48
2023-04-18T08:16:47.431Z,5.43
2023-04-18T08:17:47.491Z,5.40
2023-04-18T08:18:47.494Z,6.06
2023-04-18T08:19:47.501Z,6.26
2023-04-18T08:20:47.462Z,6.27
2023-04-18T08:21:47.462Z,6.98
2023-04-18T08:23:05.139Z,5.97
2023-04-18T08:23:48.531Z,5.10
2023-04-18T08:25:03.376Z,5.47
2023-04-18T08:25:49.171Z,5.21
2023-04-18T08:26:47.442Z,5.92
2023-04-18T08:27:47.411Z,5.90
2023-04-18T08:28:47.446Z,5.27
2023-04-18T08:29:47.481Z,6.03
2023-04-18T08:30:47.626Z,5.21
2023-04-18T08:31:47.500Z,5.05
2023-04-18T08:32:47.424Z,5.07
2023-04-18T08:33:47.397Z,4.88
2023-04-18T08:34:47.624Z,5.40
2023-04-18T08:35:47.432Z,5.26
2023-04-18T08:36:47.367Z,5.47
2023-04-18T08:37:47.358Z,5.47
2023-04-18T08:38:47.369Z,5.40
2023-04-18T08:39:47.457Z,4.98
2023-04-18T08:40:47.443Z,4.70
2023-04-18T08:41:48.139Z,4.79
2023-04-18T08:42:47.499Z,5.19
2023-04-18T08:43:47.511Z,5.31
2023-04-18T08:44:47.554Z,4.94
2023-04-18T08:45:47.625Z,5.23
2023-04-18T08:46:47.637Z,5.85
2023-04-18T08:47:47.677Z,5.36
2023-04-18T08:48:47.695Z,5.60
2023-04-18T08:49:47.822Z,5.02
2023-04-18T08:50:47.876Z,5.67
2023-04-18T08:51:48.119Z,4.74
2023-04-18T08:52:47.876Z,4.05
2023-04-18T08:53:47.949Z,4.71
2023-04-18T08:54:48.132Z,4.86
2023-04-18T08:55:48.194Z,4.37
2023-04-18T08:56:48.256Z,5.31
2023-04-18T08:57:48.204Z,4.77
2023-04-18T08:58:48.205Z,4.17
2023-04-18T08:59:50.814Z,4.07
2023-04-18T09:00:48.266Z,4.94
2023-04-18T09:01:48.250Z,4.49
2023-04-18T09:02:48.302Z,4.20
2023-04-18T09:03:48.241Z,5.15
2023-04-18T09:04:48.194Z,4.32
2023-04-18T09:05:48.197Z,5.08
2023-04-18T09:06:48.207Z,4.91
2023-04-18T09:07:48.194Z,4.68
2023-04-18T09:08:48.205Z,4.91
2023-04-18T09:09:48.184Z,4.87
2023-04-18T09:10:48.287Z,4.83
2023-04-18T09:11:48.169Z,4.85
2023-04-18T09:12:48.178Z,4.09
2023-04-18T09:13:48.229Z,5.02
2023-04-18T09:14:48.340Z,4.52
2023-04-18T09:15:48.210Z,4.67
2023-04-18T09:16:48.218Z,4.41
2023-04-18T09:17:48.190Z,4.43
2023-04-18T09:18:48.149Z,4.83
2023-04-18T09:19:48.150Z,4.83
2023-04-18T09:20:48.169Z,5.12
2023-04-18T09:21:48.658Z,4.36
2023-04-18T09:22:48.152Z,5.50
2023-04-18T09:23:48.116Z,4.33
2023-04-18T09:24:48.083Z,4.65
2023-04-18T09:25:48.103Z,4.71
2023-04-18T09:26:48.053Z,4.37
2023-04-18T09:27:48.115Z,4.19
2023-04-18T09:28:48.065Z,4.07
2023-04-18T09:29:48.035Z,3.84
2023-04-18T09:30:48.043Z,4.79
2023-04-18T09:31:48.045Z,4.84
2023-04-18T09:32:48.171Z,5.13
2023-04-18T09:33:48.008Z,5.37
2023-04-18T09:34:48.019Z,5.00
2023-04-18T09:35:48.149Z,4.80
2023-04-18T09:36:48.081Z,4.67
2023-04-18T09:37:48.001Z,5.08
2023-04-18T09:38:48.028Z,4.28
2023-04-18T09:39:47.996Z,4.98
2023-04-18T09:40:47.972Z,5.62
2023-04-18T09:41:47.970Z,5.74
2023-04-18T09:42:47.998Z,4.84
2023-04-18T09:43:47.951Z,5.47
2023-04-18T09:44:48.036Z,4.75
2023-04-18T09:45:47.972Z,4.82
2023-04-18T09:46:48.119Z,5.85
2023-04-18T09:47:48.017Z,4.78
2023-04-18T09:48:47.918Z,5.19
2023-04-18T09:49:47.903Z,4.66
2023-04-18T09:50:48.663Z,4.58
2023-04-18T09:51:48.142Z,4.83
2023-04-18T09:52:47.881Z,4.80
2023-04-18T09:53:48.046Z,4.91
2023-04-18T09:54:48.315Z,4.18
2023-04-18T09:55:47.875Z,5.43
2023-04-18T09:56:47.866Z,4.84
2023-04-18T09:57:47.853Z,5.00
2023-04-18T09:58:47.828Z,4.77
2023-04-18T09:59:47.833Z,4.53
2023-04-18T10:00:47.820Z,4.23
2023-04-18T10:01:47.886Z,4.77
2023-04-18T10:02:47.945Z,4.72
2023-04-18T10:03:47.879Z,4.39
2023-04-18T10:04:47.981Z,4.18
2023-04-18T10:05:47.891Z,4.93
2023-04-18T10:06:47.784Z,4.85
2023-04-18T10:07:47.844Z,4.74
2023-04-18T10:08:47.754Z,5.16
2023-04-18T10:09:47.818Z,4.15
2023-04-18T10:10:48.187Z,4.32
2023-04-18T10:11:47.915Z,4.57
2023-04-18T10:12:47.939Z,4.41
2023-04-18T10:13:48.053Z,4.40
2023-04-18T10:14:48.184Z,4.55
2023-04-18T10:15:48.182Z,5.36
2023-04-18T10:16:50.006Z,4.86
2023-04-18T10:18:02.844Z,4.44
2023-04-18T10:18:49.430Z,4.58
2023-04-18T10:19:48.297Z,4.80
2023-04-18T10:20:48.255Z,4.07
2023-04-18T10:21:48.217Z,4.14
2023-04-18T10:22:48.224Z,3.93
2023-04-18T10:23:48.196Z,4.04
2023-04-18T10:24:48.264Z,4.24
2023-04-18T10:25:48.704Z,4.72
2023-04-18T10:26:48.227Z,4.33
2023-04-18T10:27:48.312Z,4.42
2023-04-18T10:28:48.320Z,3.66
2023-04-18T10:29:48.407Z,3.80
2023-04-18T10:30:48.448Z,4.62
2023-04-18T10:31:48.702Z,4.34
2023-04-18T10:32:48.607Z,4.42
2023-04-18T10:34:00.672Z,4.12
2023-04-18T10:34:49.582Z,4.44
2023-04-18T10:35:48.529Z,4.56
2023-04-18T10:36:48.587Z,4.19
2023-04-18T10:37:48.508Z,4.63
2023-04-18T10:38:48.515Z,4.02
2023-04-18T10:39:48.503Z,4.73
2023-04-18T10:40:48.511Z,4.82
2023-04-18T10:41:49.453Z,4.03
2023-04-18T10:42:48.528Z,4.44
2023-04-18T10:43:48.521Z,4.51
2023-04-18T10:44:48.482Z,4.84
2023-04-18T10:45:48.452Z,4.94
2023-04-18T10:46:48.473Z,4.33
2023-04-18T10:47:48.583Z,5.32
2023-04-18T10:48:48.455Z,5.46
2023-04-18T10:49:48.521Z,5.08
2023-04-18T10:50:48.573Z,4.73
2023-04-18T10:51:48.633Z,4.46
2023-04-18T10:52:48.679Z,5.04
2023-04-18T10:53:48.744Z,4.87
2023-04-18T10:54:48.771Z,3.86
2023-04-18T10:55:48.847Z,4.07
2023-04-18T10:56:48.895Z,4.60
2023-04-18T10:57:48.935Z,5.13
2023-04-18T10:58:48.970Z,5.36
2023-04-18T10:59:48.989Z,4.94
2023-04-18T11:00:49.071Z,5.11
2023-04-18T11:01:49.086Z,4.58
2023-04-18T11:02:49.311Z,5.73
2023-04-18T11:03:49.171Z,5.56
2023-04-18T11:04:49.182Z,5.43
2023-04-18T11:05:49.193Z,5.69
2023-04-18T11:06:49.675Z,5.28
2023-04-18T11:07:49.271Z,4.60
2023-04-18T11:08:49.313Z,5.43
2023-04-18T11:09:49.376Z,5.10
2023-04-18T11:10:49.380Z,4.97
2023-04-18T11:11:49.443Z,5.44
2023-04-18T11:12:49.484Z,5.09
2023-04-18T11:13:49.508Z,4.64
2023-04-18T11:14:49.559Z,5.12
2023-04-18T11:15:49.589Z,5.36
2023-04-18T11:16:49.710Z,5.15
2023-04-18T11:17:49.694Z,4.60
2023-04-18T11:18:49.707Z,4.54
2023-04-18T11:19:49.707Z,4.81
2023-04-18T11:20:49.753Z,4.36
2023-04-18T11:21:49.810Z,4.71
2023-04-18T11:22:49.839Z,5.01
2023-04-18T11:23:49.922Z,5.41
2023-04-18T11:24:49.993Z,4.90
2023-04-18T11:25:49.977Z,5.01
2023-04-18T11:26:50.204Z,4.45
2023-04-18T11:27:50.055Z,4.06
2023-04-18T11:28:50.145Z,4.20
2023-04-18T11:29:50.192Z,3.77
2023-04-18T11:30:50.196Z,4.40
2023-04-18T11:31:50.245Z,4.15
2023-04-18T11:32:50.332Z,4.02
2023-04-18T11:33:50.351Z,4.64
2023-04-18T11:34:50.401Z,4.30
2023-04-18T11:35:50.470Z,4.03
2023-04-18T11:36:50.602Z,4.25
2023-04-18T11:37:50.608Z,4.28
2023-04-18T11:38:50.675Z,4.22
2023-04-18T11:39:50.688Z,4.66
2023-04-18T11:40:50.946Z,3.76
2023-04-18T11:41:50.785Z,4.06
2023-04-18T11:42:50.737Z,4.03
2023-04-18T11:43:50.770Z,3.70
2023-04-18T11:44:50.772Z,4.15
2023-04-18T11:45:50.823Z,4.06
2023-04-18T11:46:50.812Z,4.51
2023-04-18T11:47:50.926Z,4.38
2023-04-18T11:48:50.975Z,3.58
2023-04-18T11:49:50.954Z,3.88
2023-04-18T11:50:50.941Z,4.28
2023-04-18T11:51:50.982Z,3.95
2023-04-18T11:52:50.952Z,3.55
2023-04-18T11:53:50.993Z,4.36
2023-04-18T11:54:51.008Z,4.26
2023-04-18T11:55:51.017Z,4.01
2023-04-18T11:56:51.039Z,3.99
2023-04-18T11:57:51.061Z,4.31
2023-04-18T11:58:51.090Z,4.41
2023-04-18T11:59:51.157Z,4.83
2023-04-18T12:00:51.219Z,5.09
2023-04-18T12:01:51.245Z,4.76
2023-04-18T12:02:51.502Z,5.04
2023-04-18T12:03:51.485Z,4.76
2023-04-18T12:04:51.912Z,4.52
2023-04-18T12:05:51.538Z,4.39
2023-04-18T12:06:51.614Z,3.93
2023-04-18T12:07:51.620Z,4.14
2023-04-18T12:08:53.599Z,4.17
2023-04-18T12:09:51.725Z,3.08
2023-04-18T12:10:51.909Z,4.09
2023-04-18T12:11:51.849Z,4.54
2023-04-18T12:12:51.904Z,4.81
2023-04-18T12:13:51.988Z,4.08
2023-04-18T12:14:52.023Z,4.84
2023-04-18T12:15:52.065Z,4.12
2023-04-18T12:16:52.112Z,4.44
2023-04-18T12:17:52.173Z,4.24
2023-04-18T12:18:52.099Z,4.46
2023-04-18T12:19:52.099Z,3.85
2023-04-18T12:20:52.191Z,4.18
2023-04-18T12:21:52.157Z,4.06
2023-04-18T12:22:52.723Z,5.00
2023-04-18T12:23:52.199Z,4.22
2023-04-18T12:24:52.210Z,4.14
2023-04-18T12:25:52.291Z,4.34
2023-04-18T12:26:52.710Z,4.19
2023-04-18T12:27:52.377Z,5.02
2023-04-18T12:28:52.476Z,4.12
2023-04-18T12:29:52.461Z,3.85
2023-04-18T12:30:52.531Z,4.48
2023-04-18T12:31:54.327Z,4.19
2023-04-18T12:32:52.691Z,3.93
2023-04-18T12:33:52.674Z,4.74
2023-04-18T12:34:52.707Z,4.13
2023-04-18T12:35:52.715Z,4.13
2023-04-18T12:36:52.759Z,4.00
2023-04-18T12:37:52.746Z,3.89
2023-04-18T12:38:52.785Z,4.19
2023-04-18T12:39:52.745Z,3.60
2023-04-18T12:40:52.768Z,4.48
2023-04-18T12:41:52.742Z,3.42
2023-04-18T12:42:53.727Z,3.82
2023-04-18T12:43:52.749Z,4.12
2023-04-18T12:44:52.774Z,3.64
2023-04-18T12:45:52.793Z,3.44
2023-04-18T12:46:52.855Z,3.21
2023-04-18T12:47:53.270Z,3.78
2023-04-18T12:48:52.906Z,3.82
2023-04-18T12:49:52.957Z,4.20
2023-04-18T12:50:53.000Z,3.95
2023-04-18T12:51:53.046Z,3.56
2023-04-18T12:52:53.089Z,3.33
2023-04-18T12:53:53.109Z,4.04
2023-04-18T12:54:53.146Z,3.50
2023-04-18T12:55:53.200Z,3.57
2023-04-18T12:56:53.217Z,2.94
2023-04-18T12:57:53.256Z,3.49
2023-04-18T12:58:53.305Z,2.98
2023-04-18T12:59:53.357Z,3.26
2023-04-18T13:00:53.427Z,3.30
2023-04-18T13:01:53.435Z,3.28
2023-04-18T13:02:53.491Z,3.08
2023-04-18T13:04:00.251Z,3.11
2023-04-18T13:04:54.389Z,3.57
2023-04-18T13:05:53.382Z,3.12
2023-04-18T13:06:53.340Z,3.01
2023-04-18T13:07:56.226Z,3.23
2023-04-18T13:08:54.340Z,2.69
2023-04-18T13:09:53.336Z,3.00
2023-04-18T13:10:53.318Z,3.25
2023-04-18T13:11:53.322Z,3.43
2023-04-18T13:12:53.350Z,3.46
2023-04-18T13:13:53.314Z,3.39
2023-04-18T13:14:53.301Z,2.84
2023-04-18T13:15:53.331Z,3.05
2023-04-18T13:16:53.327Z,3.26
2023-04-18T13:17:53.327Z,2.93
2023-04-18T13:18:53.307Z,2.74